sensor_id;sensor_type;location;lat;lon;timestamp;temperature;humidity
16136;DHT22;8173;48.354;9.248;2022-10-31T00:01:18;7.20;99.90
16136;DHT22;8173;48.354;9.248;2022-10-31T00:03:46;7.10;99.90
16136;DHT22;8173;48.354;9.248;2022-10-31T00:06:14;6.90;99.90
16136;DHT22;8173;48.354;9.248;2022-10-31T00:08:43;6.90;99.90
16136;DHT22;8173;48.354;9.248;2022-10-31T00:11:10;6.90;99.90
16136;DHT22;8173;48.354;9.248;2022-10-31T00:13:37;6.80;99.90
16136;DHT22;8173;48.354;9.248;2022-10-31T00:16:05;6.70;99.90
16136;DHT22;8173;48.354;9.248;2022-10-31T00:18:32;6.60;99.90
16136;DHT22;8173;48.354;9.248;2022-10-31T00:20:59;6.60;99.90
16136;DHT22;8173;48.354;9.248;2022-10-31T00:23:28;6.60;99.90
16136;DHT22;8173;48.354;9.248;2022-10-31T00:26:00;6.50;99.90
16136;DHT22;8173;48.354;9.248;2022-10-31T00:28:26;6.60;99.90
16136;DHT22;8173;48.354;9.248;2022-10-31T00:30:58;6.60;99.90
16136;DHT22;8173;48.354;9.248;2022-10-31T00:33:25;6.60;99.90
16136;DHT22;8173;48.354;9.248;2022-10-31T00:35:52;6.60;99.90
16136;DHT22;8173;48.354;9.248;2022-10-31T00:38:18;6.60;99.90
16136;DHT22;8173;48.354;9.248;2022-10-31T00:40:46;6.60;99.90
16136;DHT22;8173;48.354;9.248;2022-10-31T00:43:13;6.60;99.90
16136;DHT22;8173;48.354;9.248;2022-10-31T00:45:41;6.60;99.90
16136;DHT22;8173;48.354;9.248;2022-10-31T00:48:08;6.70;99.90
16136;DHT22;8173;48.354;9.248;2022-10-31T00:50:34;6.80;99.90
16136;DHT22;8173;48.354;9.248;2022-10-31T00:53:01;6.80;99.90
16136;DHT22;8173;48.354;9.248;2022-10-31T00:55:28;6.80;99.90
16136;DHT22;8173;48.354;9.248;2022-10-31T00:57:56;6.70;99.90
16136;DHT22;8173;48.354;9.248;2022-10-31T01:00:23;6.60;99.90
16136;DHT22;8173;48.354;9.248;2022-10-31T01:02:50;6.60;99.90
16136;DHT22;8173;48.354;9.248;2022-10-31T01:05:17;6.50;99.90
16136;DHT22;8173;48.354;9.248;2022-10-31T01:07:44;6.60;99.90
16136;DHT22;8173;48.354;9.248;2022-10-31T01:10:11;6.60;99.90
16136;DHT22;8173;48.354;9.248;2022-10-31T01:12:38;6.60;99.90
16136;DHT22;8173;48.354;9.248;2022-10-31T01:15:09;6.70;99.90
16136;DHT22;8173;48.354;9.248;2022-10-31T01:17:36;6.70;99.90
16136;DHT22;8173;48.354;9.248;2022-10-31T01:20:03;6.80;99.90
16136;DHT22;8173;48.354;9.248;2022-10-31T01:22:30;6.80;99.90
16136;DHT22;8173;48.354;9.248;2022-10-31T01:24:57;8.60;99.90
16136;DHT22;8173;48.354;9.248;2022-10-31T01:27:24;6.70;99.90
16136;DHT22;8173;48.354;9.248;2022-10-31T01:29:51;6.80;99.90
16136;DHT22;8173;48.354;9.248;2022-10-31T01:32:19;6.60;99.90
16136;DHT22;8173;48.354;9.248;2022-10-31T01:34:45;6.50;99.90
16136;DHT22;8173;48.354;9.248;2022-10-31T01:37:12;6.40;99.90
16136;DHT22;8173;48.354;9.248;2022-10-31T01:39:39;6.40;99.90
16136;DHT22;8173;48.354;9.248;2022-10-31T01:42:05;6.40;99.90
16136;DHT22;8173;48.354;9.248;2022-10-31T01:44:53;6.30;99.90
16136;DHT22;8173;48.354;9.248;2022-10-31T01:50:16;6.20;99.90
16136;DHT22;8173;48.354;9.248;2022-10-31T01:52:47;6.20;99.90
16136;DHT22;8173;48.354;9.248;2022-10-31T01:55:20;6.20;99.90
16136;DHT22;8173;48.354;9.248;2022-10-31T01:57:51;6.10;99.90
16136;DHT22;8173;48.354;9.248;2022-10-31T02:00:20;6.00;99.90
16136;DHT22;8173;48.354;9.248;2022-10-31T02:02:49;6.00;99.90
16136;DHT22;8173;48.354;9.248;2022-10-31T02:05:18;6.00;99.90
16136;DHT22;8173;48.354;9.248;2022-10-31T02:07:54;6.00;99.90
16136;DHT22;8173;48.354;9.248;2022-10-31T02:10:22;5.90;99.90
16136;DHT22;8173;48.354;9.248;2022-10-31T02:12:50;5.80;99.90
16136;DHT22;8173;48.354;9.248;2022-10-31T02:15:18;5.80;99.90
16136;DHT22;8173;48.354;9.248;2022-10-31T02:17:44;5.70;99.90
16136;DHT22;8173;48.354;9.248;2022-10-31T02:20:16;5.70;99.90
16136;DHT22;8173;48.354;9.248;2022-10-31T02:23:19;5.70;99.90
16136;DHT22;8173;48.354;9.248;2022-10-31T02:28:46;5.70;99.90
16136;DHT22;8173;48.354;9.248;2022-10-31T02:31:25;5.70;99.90
16136;DHT22;8173;48.354;9.248;2022-10-31T02:33:59;5.60;99.90
16136;DHT22;8173;48.354;9.248;2022-10-31T02:36:31;5.60;99.90
16136;DHT22;8173;48.354;9.248;2022-10-31T02:39:08;5.60;99.90
16136;DHT22;8173;48.354;9.248;2022-10-31T02:41:45;5.60;99.90
16136;DHT22;8173;48.354;9.248;2022-10-31T02:44:20;5.40;99.90
16136;DHT22;8173;48.354;9.248;2022-10-31T02:46:50;5.30;99.90
16136;DHT22;8173;48.354;9.248;2022-10-31T02:49:22;5.30;99.90
16136;DHT22;8173;48.354;9.248;2022-10-31T02:51:50;5.40;99.90
16136;DHT22;8173;48.354;9.248;2022-10-31T02:54:19;5.50;99.90
16136;DHT22;8173;48.354;9.248;2022-10-31T02:56:47;5.50;99.90
16136;DHT22;8173;48.354;9.248;2022-10-31T02:59:14;5.60;99.90
16136;DHT22;8173;48.354;9.248;2022-10-31T03:02:06;5.70;99.90
16136;DHT22;8173;48.354;9.248;2022-10-31T03:05:02;5.60;99.90
16136;DHT22;8173;48.354;9.248;2022-10-31T03:07:39;5.60;99.90
16136;DHT22;8173;48.354;9.248;2022-10-31T03:10:16;5.60;99.90
16136;DHT22;8173;48.354;9.248;2022-10-31T03:12:49;5.70;99.90
16136;DHT22;8173;48.354;9.248;2022-10-31T03:15:24;5.60;99.90
16136;DHT22;8173;48.354;9.248;2022-10-31T03:17:56;5.70;99.90
16136;DHT22;8173;48.354;9.248;2022-10-31T03:20:39;5.70;99.90
16136;DHT22;8173;48.354;9.248;2022-10-31T03:23:11;5.60;99.90
16136;DHT22;8173;48.354;9.248;2022-10-31T03:25:39;5.60;99.90
16136;DHT22;8173;48.354;9.248;2022-10-31T03:28:08;5.60;99.90
16136;DHT22;8173;48.354;9.248;2022-10-31T03:30:39;5.50;99.90
16136;DHT22;8173;48.354;9.248;2022-10-31T03:33:10;5.30;99.90
16136;DHT22;8173;48.354;9.248;2022-10-31T03:35:41;5.30;99.90
16136;DHT22;8173;48.354;9.248;2022-10-31T03:38:10;5.30;99.90
16136;DHT22;8173;48.354;9.248;2022-10-31T03:40:38;5.40;99.90
16136;DHT22;8173;48.354;9.248;2022-10-31T03:43:10;5.40;99.90
16136;DHT22;8173;48.354;9.248;2022-10-31T03:45:41;5.30;99.90
16136;DHT22;8173;48.354;9.248;2022-10-31T03:48:11;5.30;99.90
16136;DHT22;8173;48.354;9.248;2022-10-31T03:50:42;5.30;99.90
16136;DHT22;8173;48.354;9.248;2022-10-31T03:53:13;5.30;99.90
16136;DHT22;8173;48.354;9.248;2022-10-31T03:55:48;5.30;99.90
16136;DHT22;8173;48.354;9.248;2022-10-31T03:58:21;5.20;99.90
16136;DHT22;8173;48.354;9.248;2022-10-31T04:00:51;5.10;99.90
16136;DHT22;8173;48.354;9.248;2022-10-31T04:03:23;5.00;99.90
16136;DHT22;8173;48.354;9.248;2022-10-31T04:05:54;4.90;99.90
16136;DHT22;8173;48.354;9.248;2022-10-31T04:08:24;4.90;99.90
16136;DHT22;8173;48.354;9.248;2022-10-31T04:10:54;4.90;99.90
16136;DHT22;8173;48.354;9.248;2022-10-31T04:13:24;5.00;99.90
16136;DHT22;8173;48.354;9.248;2022-10-31T04:15:55;5.10;99.90
16136;DHT22;8173;48.354;9.248;2022-10-31T04:18:24;5.30;99.90
16136;DHT22;8173;48.354;9.248;2022-10-31T04:20:59;5.20;99.90
16136;DHT22;8173;48.354;9.248;2022-10-31T04:23:27;5.20;99.90
16136;DHT22;8173;48.354;9.248;2022-10-31T04:25:54;5.10;99.90
16136;DHT22;8173;48.354;9.248;2022-10-31T04:28:21;5.10;99.90
16136;DHT22;8173;48.354;9.248;2022-10-31T04:30:48;5.10;99.90
16136;DHT22;8173;48.354;9.248;2022-10-31T04:33:15;5.20;99.90
16136;DHT22;8173;48.354;9.248;2022-10-31T04:35:43;5.20;99.90
16136;DHT22;8173;48.354;9.248;2022-10-31T04:38:10;5.10;99.90
16136;DHT22;8173;48.354;9.248;2022-10-31T04:40:37;5.00;99.90
16136;DHT22;8173;48.354;9.248;2022-10-31T04:43:04;4.90;99.90
16136;DHT22;8173;48.354;9.248;2022-10-31T04:45:30;4.90;99.90
16136;DHT22;8173;48.354;9.248;2022-10-31T04:47:57;4.90;99.90
16136;DHT22;8173;48.354;9.248;2022-10-31T04:50:24;4.90;99.90
16136;DHT22;8173;48.354;9.248;2022-10-31T04:52:52;4.90;99.90
16136;DHT22;8173;48.354;9.248;2022-10-31T04:55:19;5.00;99.90
16136;DHT22;8173;48.354;9.248;2022-10-31T04:57:47;5.00;99.90
16136;DHT22;8173;48.354;9.248;2022-10-31T05:00:17;5.00;99.90
16136;DHT22;8173;48.354;9.248;2022-10-31T05:02:44;5.10;99.90
16136;DHT22;8173;48.354;9.248;2022-10-31T05:05:11;5.10;99.90
16136;DHT22;8173;48.354;9.248;2022-10-31T05:07:39;5.00;99.90
16136;DHT22;8173;48.354;9.248;2022-10-31T05:10:09;5.00;99.90
16136;DHT22;8173;48.354;9.248;2022-10-31T05:12:36;5.00;99.90
16136;DHT22;8173;48.354;9.248;2022-10-31T05:15:03;4.90;99.90
16136;DHT22;8173;48.354;9.248;2022-10-31T05:17:31;4.90;99.90
16136;DHT22;8173;48.354;9.248;2022-10-31T05:19:57;4.90;99.90
16136;DHT22;8173;48.354;9.248;2022-10-31T05:22:24;5.00;99.90
16136;DHT22;8173;48.354;9.248;2022-10-31T05:24:51;5.10;99.90
16136;DHT22;8173;48.354;9.248;2022-10-31T05:27:19;5.20;99.90
16136;DHT22;8173;48.354;9.248;2022-10-31T05:29:46;5.20;99.90
16136;DHT22;8173;48.354;9.248;2022-10-31T05:32:13;5.20;99.90
16136;DHT22;8173;48.354;9.248;2022-10-31T05:34:39;5.10;99.90
16136;DHT22;8173;48.354;9.248;2022-10-31T05:37:06;5.00;99.90
16136;DHT22;8173;48.354;9.248;2022-10-31T05:39:33;4.90;99.90
16136;DHT22;8173;48.354;9.248;2022-10-31T05:42:00;4.80;99.90
16136;DHT22;8173;48.354;9.248;2022-10-31T05:44:28;4.80;99.90
16136;DHT22;8173;48.354;9.248;2022-10-31T05:46:54;4.90;99.90
16136;DHT22;8173;48.354;9.248;2022-10-31T05:49:21;4.90;99.90
16136;DHT22;8173;48.354;9.248;2022-10-31T05:51:48;4.90;99.90
16136;DHT22;8173;48.354;9.248;2022-10-31T05:54:15;5.00;99.90
16136;DHT22;8173;48.354;9.248;2022-10-31T05:56:41;5.20;99.90
16136;DHT22;8173;48.354;9.248;2022-10-31T05:59:08;5.30;99.90
16136;DHT22;8173;48.354;9.248;2022-10-31T06:01:36;5.50;99.90
16136;DHT22;8173;48.354;9.248;2022-10-31T06:04:03;5.60;99.90
16136;DHT22;8173;48.354;9.248;2022-10-31T06:06:30;5.50;99.90
16136;DHT22;8173;48.354;9.248;2022-10-31T06:08:56;5.30;99.90
16136;DHT22;8173;48.354;9.248;2022-10-31T06:11:23;5.20;99.90
16136;DHT22;8173;48.354;9.248;2022-10-31T06:13:50;5.10;99.90
16136;DHT22;8173;48.354;9.248;2022-10-31T06:16:17;5.10;99.90
16136;DHT22;8173;48.354;9.248;2022-10-31T06:18:45;5.00;99.90
16136;DHT22;8173;48.354;9.248;2022-10-31T06:21:12;4.90;99.90
16136;DHT22;8173;48.354;9.248;2022-10-31T06:23:38;4.90;99.90
16136;DHT22;8173;48.354;9.248;2022-10-31T06:26:05;4.90;99.90
16136;DHT22;8173;48.354;9.248;2022-10-31T06:28:32;4.90;99.90
16136;DHT22;8173;48.354;9.248;2022-10-31T06:31:01;4.90;99.90
16136;DHT22;8173;48.354;9.248;2022-10-31T06:33:28;4.80;99.90
16136;DHT22;8173;48.354;9.248;2022-10-31T06:35:56;4.80;99.90
16136;DHT22;8173;48.354;9.248;2022-10-31T06:38:23;5.00;99.90
16136;DHT22;8173;48.354;9.248;2022-10-31T06:40:49;5.10;99.90
16136;DHT22;8173;48.354;9.248;2022-10-31T06:43:16;5.40;99.90
16136;DHT22;8173;48.354;9.248;2022-10-31T06:45:43;5.70;99.90
16136;DHT22;8173;48.354;9.248;2022-10-31T06:48:09;5.90;99.90
16136;DHT22;8173;48.354;9.248;2022-10-31T06:50:36;6.10;99.90
16136;DHT22;8173;48.354;9.248;2022-10-31T06:53:05;6.30;99.90
16136;DHT22;8173;48.354;9.248;2022-10-31T06:55:31;6.30;99.90
16136;DHT22;8173;48.354;9.248;2022-10-31T06:58:00;6.30;99.90
16136;DHT22;8173;48.354;9.248;2022-10-31T07:00:28;6.40;99.90
16136;DHT22;8173;48.354;9.248;2022-10-31T07:02:56;6.50;99.90
16136;DHT22;8173;48.354;9.248;2022-10-31T07:05:23;6.60;99.90
16136;DHT22;8173;48.354;9.248;2022-10-31T07:07:52;6.80;99.90
16136;DHT22;8173;48.354;9.248;2022-10-31T07:10:21;6.90;99.90
16136;DHT22;8173;48.354;9.248;2022-10-31T07:12:47;7.10;99.90
16136;DHT22;8173;48.354;9.248;2022-10-31T07:15:14;7.40;99.90
16136;DHT22;8173;48.354;9.248;2022-10-31T07:17:41;7.80;99.90
16136;DHT22;8173;48.354;9.248;2022-10-31T07:20:09;8.00;99.90
16136;DHT22;8173;48.354;9.248;2022-10-31T07:22:36;8.30;99.90
16136;DHT22;8173;48.354;9.248;2022-10-31T07:25:04;8.80;99.90
16136;DHT22;8173;48.354;9.248;2022-10-31T07:27:36;9.30;99.90
16136;DHT22;8173;48.354;9.248;2022-10-31T07:30:04;9.50;99.90
16136;DHT22;8173;48.354;9.248;2022-10-31T07:32:37;9.70;99.90
16136;DHT22;8173;48.354;9.248;2022-10-31T07:35:04;9.80;99.90
16136;DHT22;8173;48.354;9.248;2022-10-31T07:37:31;9.90;99.90
16136;DHT22;8173;48.354;9.248;2022-10-31T07:39:58;10.00;99.90
16136;DHT22;8173;48.354;9.248;2022-10-31T07:42:25;9.90;99.90
16136;DHT22;8173;48.354;9.248;2022-10-31T07:44:53;9.60;99.90
16136;DHT22;8173;48.354;9.248;2022-10-31T07:47:19;9.30;99.90
16136;DHT22;8173;48.354;9.248;2022-10-31T07:49:46;9.20;99.90
16136;DHT22;8173;48.354;9.248;2022-10-31T07:52:13;9.00;99.90
16136;DHT22;8173;48.354;9.248;2022-10-31T07:54:40;9.10;99.90
16136;DHT22;8173;48.354;9.248;2022-10-31T07:57:06;9.30;99.90
16136;DHT22;8173;48.354;9.248;2022-10-31T07:59:33;9.60;99.90
16136;DHT22;8173;48.354;9.248;2022-10-31T08:02:01;9.80;99.90
16136;DHT22;8173;48.354;9.248;2022-10-31T08:04:28;10.20;99.90
16136;DHT22;8173;48.354;9.248;2022-10-31T08:06:54;10.40;99.90
16136;DHT22;8173;48.354;9.248;2022-10-31T08:09:21;10.40;99.90
16136;DHT22;8173;48.354;9.248;2022-10-31T08:11:48;10.50;99.90
16136;DHT22;8173;48.354;9.248;2022-10-31T08:14:14;10.60;99.90
16136;DHT22;8173;48.354;9.248;2022-10-31T08:16:41;10.50;99.90
16136;DHT22;8173;48.354;9.248;2022-10-31T08:19:09;10.60;99.90
16136;DHT22;8173;48.354;9.248;2022-10-31T08:21:36;10.80;99.90
16136;DHT22;8173;48.354;9.248;2022-10-31T08:24:03;11.20;99.90
16136;DHT22;8173;48.354;9.248;2022-10-31T08:26:30;11.60;99.90
16136;DHT22;8173;48.354;9.248;2022-10-31T08:28:56;11.80;99.90
16136;DHT22;8173;48.354;9.248;2022-10-31T08:31:23;11.90;99.90
16136;DHT22;8173;48.354;9.248;2022-10-31T08:33:52;12.20;99.90
16136;DHT22;8173;48.354;9.248;2022-10-31T08:36:20;12.20;99.90
16136;DHT22;8173;48.354;9.248;2022-10-31T08:38:48;12.40;99.90
16136;DHT22;8173;48.354;9.248;2022-10-31T08:41:15;12.60;99.90
16136;DHT22;8173;48.354;9.248;2022-10-31T08:43:41;12.90;99.90
16136;DHT22;8173;48.354;9.248;2022-10-31T08:46:08;12.90;99.90
16136;DHT22;8173;48.354;9.248;2022-10-31T08:48:35;12.90;99.90
16136;DHT22;8173;48.354;9.248;2022-10-31T08:51:02;13.00;99.90
16136;DHT22;8173;48.354;9.248;2022-10-31T08:53:30;13.10;99.90
16136;DHT22;8173;48.354;9.248;2022-10-31T08:55:57;13.20;99.90
16136;DHT22;8173;48.354;9.248;2022-10-31T08:58:24;13.50;99.90
16136;DHT22;8173;48.354;9.248;2022-10-31T09:00:52;13.70;99.90
16136;DHT22;8173;48.354;9.248;2022-10-31T09:03:22;14.00;99.90
16136;DHT22;8173;48.354;9.248;2022-10-31T09:05:49;14.40;99.90
16136;DHT22;8173;48.354;9.248;2022-10-31T09:08:17;14.70;99.90
16136;DHT22;8173;48.354;9.248;2022-10-31T09:10:45;14.80;99.90
16136;DHT22;8173;48.354;9.248;2022-10-31T09:13:13;14.90;99.90
16136;DHT22;8173;48.354;9.248;2022-10-31T09:15:42;15.00;99.90
16136;DHT22;8173;48.354;9.248;2022-10-31T09:18:11;15.20;99.90
16136;DHT22;8173;48.354;9.248;2022-10-31T09:20:39;15.50;99.90
16136;DHT22;8173;48.354;9.248;2022-10-31T09:23:09;15.80;99.90
16136;DHT22;8173;48.354;9.248;2022-10-31T09:25:37;16.10;99.90
16136;DHT22;8173;48.354;9.248;2022-10-31T09:28:06;16.40;99.90
16136;DHT22;8173;48.354;9.248;2022-10-31T09:30:34;16.50;99.90
16136;DHT22;8173;48.354;9.248;2022-10-31T09:33:03;16.60;99.90
16136;DHT22;8173;48.354;9.248;2022-10-31T09:35:30;16.80;99.90
16136;DHT22;8173;48.354;9.248;2022-10-31T09:37:59;17.00;99.90
16136;DHT22;8173;48.354;9.248;2022-10-31T09:40:31;17.00;99.90
16136;DHT22;8173;48.354;9.248;2022-10-31T09:43:07;16.90;99.90
16136;DHT22;8173;48.354;9.248;2022-10-31T09:45:38;17.00;99.90
16136;DHT22;8173;48.354;9.248;2022-10-31T09:48:24;17.00;99.90
16136;DHT22;8173;48.354;9.248;2022-10-31T09:50:57;17.00;99.90
16136;DHT22;8173;48.354;9.248;2022-10-31T09:53:30;17.00;99.90
16136;DHT22;8173;48.354;9.248;2022-10-31T09:55:59;17.10;99.90
16136;DHT22;8173;48.354;9.248;2022-10-31T09:58:29;17.20;99.90
16136;DHT22;8173;48.354;9.248;2022-10-31T10:00:59;17.50;99.90
16136;DHT22;8173;48.354;9.248;2022-10-31T10:03:31;17.60;99.90
16136;DHT22;8173;48.354;9.248;2022-10-31T10:06:07;17.70;99.90
16136;DHT22;8173;48.354;9.248;2022-10-31T10:08:37;17.70;99.90
16136;DHT22;8173;48.354;9.248;2022-10-31T10:11:21;17.90;99.90
16136;DHT22;8173;48.354;9.248;2022-10-31T10:14:04;18.00;99.90
16136;DHT22;8173;48.354;9.248;2022-10-31T10:16:48;18.10;99.90
16136;DHT22;8173;48.354;9.248;2022-10-31T10:19:42;18.20;99.90
16136;DHT22;8173;48.354;9.248;2022-10-31T10:22:19;18.30;99.90
16136;DHT22;8173;48.354;9.248;2022-10-31T10:25:02;18.30;99.90
16136;DHT22;8173;48.354;9.248;2022-10-31T10:27:41;18.50;99.90
16136;DHT22;8173;48.354;9.248;2022-10-31T10:30:15;18.60;99.90
16136;DHT22;8173;48.354;9.248;2022-10-31T10:32:45;18.70;99.90
16136;DHT22;8173;48.354;9.248;2022-10-31T10:35:19;18.90;99.90
16136;DHT22;8173;48.354;9.248;2022-10-31T10:37:49;19.10;99.90
16136;DHT22;8173;48.354;9.248;2022-10-31T10:40:19;19.50;99.90
16136;DHT22;8173;48.354;9.248;2022-10-31T10:42:56;19.70;99.90
16136;DHT22;8173;48.354;9.248;2022-10-31T10:45:46;20.20;99.90
16136;DHT22;8173;48.354;9.248;2022-10-31T10:48:39;20.40;99.90
16136;DHT22;8173;48.354;9.248;2022-10-31T10:51:15;20.70;99.90
16136;DHT22;8173;48.354;9.248;2022-10-31T10:53:53;21.20;99.90
16136;DHT22;8173;48.354;9.248;2022-10-31T10:56:40;21.20;99.90
16136;DHT22;8173;48.354;9.248;2022-10-31T10:59:12;20.90;99.90
16136;DHT22;8173;48.354;9.248;2022-10-31T11:01:41;21.10;99.90
16136;DHT22;8173;48.354;9.248;2022-10-31T11:04:29;21.30;99.90
16136;DHT22;8173;48.354;9.248;2022-10-31T11:06:57;21.40;99.90
16136;DHT22;8173;48.354;9.248;2022-10-31T11:09:24;21.70;99.90
16136;DHT22;8173;48.354;9.248;2022-10-31T11:11:51;21.80;99.90
16136;DHT22;8173;48.354;9.248;2022-10-31T11:14:18;21.80;99.90
16136;DHT22;8173;48.354;9.248;2022-10-31T11:16:50;21.80;99.90
16136;DHT22;8173;48.354;9.248;2022-10-31T11:19:19;21.80;99.90
16136;DHT22;8173;48.354;9.248;2022-10-31T11:21:48;21.80;99.90
16136;DHT22;8173;48.354;9.248;2022-10-31T11:24:18;21.80;99.90
16136;DHT22;8173;48.354;9.248;2022-10-31T11:26:46;21.70;99.90
16136;DHT22;8173;48.354;9.248;2022-10-31T11:29:16;21.80;99.90
16136;DHT22;8173;48.354;9.248;2022-10-31T11:31:44;22.00;99.90
16136;DHT22;8173;48.354;9.248;2022-10-31T11:34:25;21.90;99.90
16136;DHT22;8173;48.354;9.248;2022-10-31T11:36:54;21.90;99.90
16136;DHT22;8173;48.354;9.248;2022-10-31T11:39:23;21.80;99.90
16136;DHT22;8173;48.354;9.248;2022-10-31T11:41:52;21.80;99.90
16136;DHT22;8173;48.354;9.248;2022-10-31T11:44:22;22.10;99.90
16136;DHT22;8173;48.354;9.248;2022-10-31T11:46:51;22.20;99.90
16136;DHT22;8173;48.354;9.248;2022-10-31T11:49:24;22.30;99.90
16136;DHT22;8173;48.354;9.248;2022-10-31T11:51:54;22.40;99.90
16136;DHT22;8173;48.354;9.248;2022-10-31T11:54:23;22.10;99.90
16136;DHT22;8173;48.354;9.248;2022-10-31T11:56:52;22.00;99.90
16136;DHT22;8173;48.354;9.248;2022-10-31T11:59:24;22.10;99.90
16136;DHT22;8173;48.354;9.248;2022-10-31T12:01:53;22.00;99.90
16136;DHT22;8173;48.354;9.248;2022-10-31T12:04:27;21.90;99.90
16136;DHT22;8173;48.354;9.248;2022-10-31T12:06:57;21.50;99.90
16136;DHT22;8173;48.354;9.248;2022-10-31T12:09:27;21.10;99.90
16136;DHT22;8173;48.354;9.248;2022-10-31T12:12:13;20.60;99.90
16136;DHT22;8173;48.354;9.248;2022-10-31T12:14:51;20.10;99.90
16136;DHT22;8173;48.354;9.248;2022-10-31T12:17:23;19.50;99.90
16136;DHT22;8173;48.354;9.248;2022-10-31T12:20:02;19.50;99.90
16136;DHT22;8173;48.354;9.248;2022-10-31T12:22:39;19.50;99.90
16136;DHT22;8173;48.354;9.248;2022-10-31T12:25:29;19.30;99.90
16136;DHT22;8173;48.354;9.248;2022-10-31T12:28:07;19.20;99.90
16136;DHT22;8173;48.354;9.248;2022-10-31T12:30:46;19.30;99.90
16136;DHT22;8173;48.354;9.248;2022-10-31T12:33:39;19.30;99.90
16136;DHT22;8173;48.354;9.248;2022-10-31T12:36:29;19.30;99.90
16136;DHT22;8173;48.354;9.248;2022-10-31T12:39:16;19.20;99.90
16136;DHT22;8173;48.354;9.248;2022-10-31T12:41:48;19.10;99.90
16136;DHT22;8173;48.354;9.248;2022-10-31T12:47:31;19.00;99.90
16136;DHT22;8173;48.354;9.248;2022-10-31T12:50:15;18.80;99.90
16136;DHT22;8173;48.354;9.248;2022-10-31T12:52:55;18.60;99.90
16136;DHT22;8173;48.354;9.248;2022-10-31T12:55:40;18.50;99.90
16136;DHT22;8173;48.354;9.248;2022-10-31T12:58:10;18.60;99.90
16136;DHT22;8173;48.354;9.248;2022-10-31T13:00:44;18.70;99.90
16136;DHT22;8173;48.354;9.248;2022-10-31T13:03:20;18.80;99.90
16136;DHT22;8173;48.354;9.248;2022-10-31T13:05:51;18.80;99.90
16136;DHT22;8173;48.354;9.248;2022-10-31T13:08:22;18.70;99.90
16136;DHT22;8173;48.354;9.248;2022-10-31T13:10:59;18.80;99.90
16136;DHT22;8173;48.354;9.248;2022-10-31T13:13:34;18.90;99.90
16136;DHT22;8173;48.354;9.248;2022-10-31T13:16:05;18.90;99.90
16136;DHT22;8173;48.354;9.248;2022-10-31T13:18:39;18.90;99.90
16136;DHT22;8173;48.354;9.248;2022-10-31T13:21:10;19.00;99.90
16136;DHT22;8173;48.354;9.248;2022-10-31T13:23:41;19.10;99.90
16136;DHT22;8173;48.354;9.248;2022-10-31T13:26:13;19.20;99.90
16136;DHT22;8173;48.354;9.248;2022-10-31T13:28:44;19.30;99.90
16136;DHT22;8173;48.354;9.248;2022-10-31T13:31:12;19.20;99.90
16136;DHT22;8173;48.354;9.248;2022-10-31T13:33:43;19.00;99.90
16136;DHT22;8173;48.354;9.248;2022-10-31T13:36:21;19.00;99.90
16136;DHT22;8173;48.354;9.248;2022-10-31T13:38:54;19.10;99.90
16136;DHT22;8173;48.354;9.248;2022-10-31T13:41:32;19.20;99.90
16136;DHT22;8173;48.354;9.248;2022-10-31T13:44:06;19.50;99.90
16136;DHT22;8173;48.354;9.248;2022-10-31T13:46:38;19.60;99.90
16136;DHT22;8173;48.354;9.248;2022-10-31T13:49:23;19.90;99.90
16136;DHT22;8173;48.354;9.248;2022-10-31T13:51:50;20.30;99.90
16136;DHT22;8173;48.354;9.248;2022-10-31T13:54:23;20.30;99.90
16136;DHT22;8173;48.354;9.248;2022-10-31T13:56:51;20.40;99.90
16136;DHT22;8173;48.354;9.248;2022-10-31T13:59:21;20.40;99.90
16136;DHT22;8173;48.354;9.248;2022-10-31T14:01:51;20.60;99.90
16136;DHT22;8173;48.354;9.248;2022-10-31T14:04:21;20.60;99.90
16136;DHT22;8173;48.354;9.248;2022-10-31T14:06:57;20.40;99.90
16136;DHT22;8173;48.354;9.248;2022-10-31T14:09:29;20.30;99.90
16136;DHT22;8173;48.354;9.248;2022-10-31T14:12:01;20.30;99.90
16136;DHT22;8173;48.354;9.248;2022-10-31T14:14:36;20.00;99.90
16136;DHT22;8173;48.354;9.248;2022-10-31T14:17:17;19.80;99.90
16136;DHT22;8173;48.354;9.248;2022-10-31T14:22:43;19.30;99.90
16136;DHT22;8173;48.354;9.248;2022-10-31T14:25:32;19.20;99.90
16136;DHT22;8173;48.354;9.248;2022-10-31T14:28:01;19.00;99.90
16136;DHT22;8173;48.354;9.248;2022-10-31T14:30:29;18.90;99.90
16136;DHT22;8173;48.354;9.248;2022-10-31T14:32:58;18.70;99.90
16136;DHT22;8173;48.354;9.248;2022-10-31T14:35:34;18.50;99.90
16136;DHT22;8173;48.354;9.248;2022-10-31T14:38:21;18.20;99.90
16136;DHT22;8173;48.354;9.248;2022-10-31T14:44:04;17.70;99.90
16136;DHT22;8173;48.354;9.248;2022-10-31T14:46:39;17.50;99.90
16136;DHT22;8173;48.354;9.248;2022-10-31T14:49:21;17.40;99.90
16136;DHT22;8173;48.354;9.248;2022-10-31T14:51:52;17.30;99.90
16136;DHT22;8173;48.354;9.248;2022-10-31T14:54:25;17.20;99.90
16136;DHT22;8173;48.354;9.248;2022-10-31T14:56:56;17.10;99.90
16136;DHT22;8173;48.354;9.248;2022-10-31T14:59:28;17.00;99.90
16136;DHT22;8173;48.354;9.248;2022-10-31T15:01:58;17.00;99.90
16136;DHT22;8173;48.354;9.248;2022-10-31T15:04:27;16.90;99.90
16136;DHT22;8173;48.354;9.248;2022-10-31T15:07:11;16.80;99.90
16136;DHT22;8173;48.354;9.248;2022-10-31T15:09:40;16.70;99.90
16136;DHT22;8173;48.354;9.248;2022-10-31T15:12:28;16.60;99.90
16136;DHT22;8173;48.354;9.248;2022-10-31T15:14:56;16.60;99.90
16136;DHT22;8173;48.354;9.248;2022-10-31T15:17:24;16.30;99.90
16136;DHT22;8173;48.354;9.248;2022-10-31T15:19:52;16.20;99.90
16136;DHT22;8173;48.354;9.248;2022-10-31T15:22:22;16.10;99.90
16136;DHT22;8173;48.354;9.248;2022-10-31T15:24:50;16.00;99.90
16136;DHT22;8173;48.354;9.248;2022-10-31T15:27:21;15.80;99.90
16136;DHT22;8173;48.354;9.248;2022-10-31T15:29:52;15.60;99.90
16136;DHT22;8173;48.354;9.248;2022-10-31T15:32:21;15.50;99.90
16136;DHT22;8173;48.354;9.248;2022-10-31T15:34:49;15.50;99.90
16136;DHT22;8173;48.354;9.248;2022-10-31T15:37:17;15.40;99.90
16136;DHT22;8173;48.354;9.248;2022-10-31T15:39:45;15.30;99.90
16136;DHT22;8173;48.354;9.248;2022-10-31T15:42:18;15.10;99.90
16136;DHT22;8173;48.354;9.248;2022-10-31T15:44:48;14.90;99.90
16136;DHT22;8173;48.354;9.248;2022-10-31T15:47:20;14.80;99.90
16136;DHT22;8173;48.354;9.248;2022-10-31T15:49:49;14.60;99.90
16136;DHT22;8173;48.354;9.248;2022-10-31T15:52:26;14.50;99.90
16136;DHT22;8173;48.354;9.248;2022-10-31T15:54:57;14.30;99.90
16136;DHT22;8173;48.354;9.248;2022-10-31T15:57:24;13.90;99.90
16136;DHT22;8173;48.354;9.248;2022-10-31T15:59:53;13.80;99.90
16136;DHT22;8173;48.354;9.248;2022-10-31T16:02:23;13.60;99.90
16136;DHT22;8173;48.354;9.248;2022-10-31T16:04:53;13.50;99.90
16136;DHT22;8173;48.354;9.248;2022-10-31T16:07:20;13.30;99.90
16136;DHT22;8173;48.354;9.248;2022-10-31T16:09:52;13.30;99.90
16136;DHT22;8173;48.354;9.248;2022-10-31T16:12:20;13.20;99.90
16136;DHT22;8173;48.354;9.248;2022-10-31T16:14:47;13.10;99.90
16136;DHT22;8173;48.354;9.248;2022-10-31T16:17:17;13.00;99.90
16136;DHT22;8173;48.354;9.248;2022-10-31T16:19:54;13.00;99.90
16136;DHT22;8173;48.354;9.248;2022-10-31T16:22:24;12.80;99.90
16136;DHT22;8173;48.354;9.248;2022-10-31T16:24:55;12.70;99.90
16136;DHT22;8173;48.354;9.248;2022-10-31T16:27:25;12.40;99.90
16136;DHT22;8173;48.354;9.248;2022-10-31T16:29:55;12.30;99.90
16136;DHT22;8173;48.354;9.248;2022-10-31T16:32:31;12.30;99.90